sensor_id;sensor_type;location;lat;lon;timestamp;P1;P2;P0
79141;PMS5003;68550;-26.480;29.234;2023-06-22T00:01:18;10;10;
79141;PMS5003;68550;-26.480;29.234;2023-06-22T00:03:43;15;13;
79141;PMS5003;68550;-26.480;29.234;2023-06-22T00:06:08;10;9;
79141;PMS5003;68550;-26.480;29.234;2023-06-22T00:08:34;9;9;
79141;PMS5003;68550;-26.480;29.234;2023-06-22T00:10:59;11;10;
79141;PMS5003;68550;-26.480;29.234;2023-06-22T00:13:25;12;10;
79141;PMS5003;68550;-26.480;29.234;2023-06-22T00:15:51;10;10;
79141;PMS5003;68550;-26.480;29.234;2023-06-22T00:18:16;11;10;
79141;PMS5003;68550;-26.480;29.234;2023-06-22T00:20:41;13;11;
79141;PMS5003;68550;-26.480;29.234;2023-06-22T00:23:09;11;11;
79141;PMS5003;68550;-26.480;29.234;2023-06-22T00:25:32;10;10;
79141;PMS5003;68550;-26.480;29.234;2023-06-22T00:27:58;9;9;
79141;PMS5003;68550;-26.480;29.234;2023-06-22T00:30:24;9;9;
79141;PMS5003;68550;-26.480;29.234;2023-06-22T00:32:49;10;9;
79141;PMS5003;68550;-26.480;29.234;2023-06-22T00:35:14;10;10;
79141;PMS5003;68550;-26.480;29.234;2023-06-22T00:37:40;9;9;
79141;PMS5003;68550;-26.480;29.234;2023-06-22T00:40:10;10;9;
79141;PMS5003;68550;-26.480;29.234;2023-06-22T00:42:31;11;11;
79141;PMS5003;68550;-26.480;29.234;2023-06-22T00:44:57;9;9;
79141;PMS5003;68550;-26.480;29.234;2023-06-22T00:47:22;9;9;
79141;PMS5003;68550;-26.480;29.234;2023-06-22T00:49:48;9;9;
79141;PMS5003;68550;-26.480;29.234;2023-06-22T00:52:13;10;8;
79141;PMS5003;68550;-26.480;29.234;2023-06-22T00:54:39;8;8;
79141;PMS5003;68550;-26.480;29.234;2023-06-22T00:57:05;9;8;
79141;PMS5003;68550;-26.480;29.234;2023-06-22T00:59:32;11;11;
79141;PMS5003;68550;-26.480;29.234;2023-06-22T01:01:55;11;11;
79141;PMS5003;68550;-26.480;29.234;2023-06-22T01:04:23;10;10;
79141;PMS5003;68550;-26.480;29.234;2023-06-22T01:06:52;10;10;
79141;PMS5003;68550;-26.480;29.234;2023-06-22T01:09:14;6;6;
79141;PMS5003;68550;-26.480;29.234;2023-06-22T01:11:39;10;10;
79141;PMS5003;68550;-26.480;29.234;2023-06-22T01:14:06;9;9;
79141;PMS5003;68550;-26.480;29.234;2023-06-22T01:16:33;9;9;
79141;PMS5003;68550;-26.480;29.234;2023-06-22T01:18:55;14;14;
79141;PMS5003;68550;-26.480;29.234;2023-06-22T01:21:22;10;10;
79141;PMS5003;68550;-26.480;29.234;2023-06-22T01:23:51;9;9;
79141;PMS5003;68550;-26.480;29.234;2023-06-22T01:26:13;9;9;
79141;PMS5003;68550;-26.480;29.234;2023-06-22T01:28:43;8;8;
79141;PMS5003;68550;-26.480;29.234;2023-06-22T01:31:06;10;10;
79141;PMS5003;68550;-26.480;29.234;2023-06-22T01:33:28;7;7;
79141;PMS5003;68550;-26.480;29.234;2023-06-22T01:35:53;9;8;
79141;PMS5003;68550;-26.480;29.234;2023-06-22T01:38:19;7;7;
79141;PMS5003;68550;-26.480;29.234;2023-06-22T01:40:45;9;8;
79141;PMS5003;68550;-26.480;29.234;2023-06-22T01:43:10;9;7;
79141;PMS5003;68550;-26.480;29.234;2023-06-22T01:45:36;7;7;
79141;PMS5003;68550;-26.480;29.234;2023-06-22T01:48:01;11;10;
79141;PMS5003;68550;-26.480;29.234;2023-06-22T01:50:27;8;7;
79141;PMS5003;68550;-26.480;29.234;2023-06-22T01:52:53;8;7;
79141;PMS5003;68550;-26.480;29.234;2023-06-22T01:55:18;5;5;
79141;PMS5003;68550;-26.480;29.234;2023-06-22T01:57:44;9;9;
79141;PMS5003;68550;-26.480;29.234;2023-06-22T02:00:10;6;6;
79141;PMS5003;68550;-26.480;29.234;2023-06-22T02:02:39;9;8;
79141;PMS5003;68550;-26.480;29.234;2023-06-22T02:05:02;7;7;
79141;PMS5003;68550;-26.480;29.234;2023-06-22T02:07:28;8;7;
79141;PMS5003;68550;-26.480;29.234;2023-06-22T02:09:52;6;6;
79141;PMS5003;68550;-26.480;29.234;2023-06-22T02:12:18;7;6;
79141;PMS5003;68550;-26.480;29.234;2023-06-22T02:14:44;7;6;
79141;PMS5003;68550;-26.480;29.234;2023-06-22T02:17:09;6;6;
79141;PMS5003;68550;-26.480;29.234;2023-06-22T02:19:36;7;7;
79141;PMS5003;68550;-26.480;29.234;2023-06-22T02:21:59;6;6;
79141;PMS5003;68550;-26.480;29.234;2023-06-22T02:24:25;8;8;
79141;PMS5003;68550;-26.480;29.234;2023-06-22T02:26:51;9;8;
79141;PMS5003;68550;-26.480;29.234;2023-06-22T02:29:16;5;5;
79141;PMS5003;68550;-26.480;29.234;2023-06-22T02:31:42;7;7;
79141;PMS5003;68550;-26.480;29.234;2023-06-22T02:34:07;5;5;
79141;PMS5003;68550;-26.480;29.234;2023-06-22T02:36:33;7;7;
79141;PMS5003;68550;-26.480;29.234;2023-06-22T02:38:59;6;6;
79141;PMS5003;68550;-26.480;29.234;2023-06-22T02:41:24;7;7;
79141;PMS5003;68550;-26.480;29.234;2023-06-22T02:43:50;7;7;
79141;PMS5003;68550;-26.480;29.234;2023-06-22T02:46:15;8;8;
79141;PMS5003;68550;-26.480;29.234;2023-06-22T02:48:41;6;6;
79141;PMS5003;68550;-26.480;29.234;2023-06-22T02:51:07;8;7;
79141;PMS5003;68550;-26.480;29.234;2023-06-22T02:53:32;7;7;
79141;PMS5003;68550;-26.480;29.234;2023-06-22T02:55:58;8;8;
79141;PMS5003;68550;-26.480;29.234;2023-06-22T02:58:23;5;5;
79141;PMS5003;68550;-26.480;29.234;2023-06-22T03:00:49;9;8;
79141;PMS5003;68550;-26.480;29.234;2023-06-22T03:03:15;6;5;
79141;PMS5003;68550;-26.480;29.234;2023-06-22T03:05:40;9;9;
79141;PMS5003;68550;-26.480;29.234;2023-06-22T03:08:06;6;6;
79141;PMS5003;68550;-26.480;29.234;2023-06-22T03:10:31;9;8;
79141;PMS5003;68550;-26.480;29.234;2023-06-22T03:12:57;8;8;
79141;PMS5003;68550;-26.480;29.234;2023-06-22T03:15:23;11;9;
79141;PMS5003;68550;-26.480;29.234;2023-06-22T03:17:48;6;6;
79141;PMS5003;68550;-26.480;29.234;2023-06-22T03:20:14;6;6;
79141;PMS5003;68550;-26.480;29.234;2023-06-22T03:22:42;8;6;
79141;PMS5003;68550;-26.480;29.234;2023-06-22T03:25:07;7;7;
79141;PMS5003;68550;-26.480;29.234;2023-06-22T03:27:31;8;8;
79141;PMS5003;68550;-26.480;29.234;2023-06-22T03:29:57;6;6;
79141;PMS5003;68550;-26.480;29.234;2023-06-22T03:32:22;5;5;
79141;PMS5003;68550;-26.480;29.234;2023-06-22T03:34:48;10;7;
79141;PMS5003;68550;-26.480;29.234;2023-06-22T03:37:13;5;5;
79141;PMS5003;68550;-26.480;29.234;2023-06-22T03:39:39;8;6;
79141;PMS5003;68550;-26.480;29.234;2023-06-22T03:42:05;6;6;
79141;PMS5003;68550;-26.480;29.234;2023-06-22T03:44:30;8;7;
79141;PMS5003;68550;-26.480;29.234;2023-06-22T03:46:55;12;10;
79141;PMS5003;68550;-26.480;29.234;2023-06-22T03:49:21;10;10;
79141;PMS5003;68550;-26.480;29.234;2023-06-22T03:51:46;7;7;
79141;PMS5003;68550;-26.480;29.234;2023-06-22T03:54:12;8;7;
79141;PMS5003;68550;-26.480;29.234;2023-06-22T03:56:37;7;6;
79141;PMS5003;68550;-26.480;29.234;2023-06-22T03:59:03;7;7;
79141;PMS5003;68550;-26.480;29.234;2023-06-22T04:01:31;6;6;
79141;PMS5003;68550;-26.480;29.234;2023-06-22T04:03:54;9;8;
79141;PMS5003;68550;-26.480;29.234;2023-06-22T04:06:19;9;7;
79141;PMS5003;68550;-26.480;29.234;2023-06-22T04:08:45;7;7;
79141;PMS5003;68550;-26.480;29.234;2023-06-22T04:11:11;8;8;
79141;PMS5003;68550;-26.480;29.234;2023-06-22T04:13:36;7;6;
79141;PMS5003;68550;-26.480;29.234;2023-06-22T04:16:02;7;7;
79141;PMS5003;68550;-26.480;29.234;2023-06-22T04:18:28;7;7;
79141;PMS5003;68550;-26.480;29.234;2023-06-22T04:20:53;6;6;
79141;PMS5003;68550;-26.480;29.234;2023-06-22T04:23:18;9;8;
79141;PMS5003;68550;-26.480;29.234;2023-06-22T04:25:44;10;9;
79141;PMS5003;68550;-26.480;29.234;2023-06-22T04:28:10;13;10;
79141;PMS5003;68550;-26.480;29.234;2023-06-22T04:30:35;14;11;
79141;PMS5003;68550;-26.480;29.234;2023-06-22T04:33:02;9;9;
79141;PMS5003;68550;-26.480;29.234;2023-06-22T04:35:26;10;9;
79141;PMS5003;68550;-26.480;29.234;2023-06-22T04:40:21;8;8;
79141;PMS5003;68550;-26.480;29.234;2023-06-22T04:42:42;7;6;
79141;PMS5003;68550;-26.480;29.234;2023-06-22T04:45:08;6;6;
79141;PMS5003;68550;-26.480;29.234;2023-06-22T04:47:33;9;8;
79141;PMS5003;68550;-26.480;29.234;2023-06-22T04:49:59;12;8;
79141;PMS5003;68550;-26.480;29.234;2023-06-22T04:52:25;8;7;
79141;PMS5003;68550;-26.480;29.234;2023-06-22T04:54:50;7;7;
79141;PMS5003;68550;-26.480;29.234;2023-06-22T04:57:16;6;6;
79141;PMS5003;68550;-26.480;29.234;2023-06-22T04:59:41;11;8;
79141;PMS5003;68550;-26.480;29.234;2023-06-22T05:02:07;9;9;
79141;PMS5003;68550;-26.480;29.234;2023-06-22T05:04:33;7;6;
79141;PMS5003;68550;-26.480;29.234;2023-06-22T05:06:58;11;11;
79141;PMS5003;68550;-26.480;29.234;2023-06-22T05:09:23;10;10;
79141;PMS5003;68550;-26.480;29.234;2023-06-22T05:11:49;7;6;
79141;PMS5003;68550;-26.480;29.234;2023-06-22T05:14:14;9;9;
79141;PMS5003;68550;-26.480;29.234;2023-06-22T05:16:41;7;7;
79141;PMS5003;68550;-26.480;29.234;2023-06-22T05:19:06;10;8;
79141;PMS5003;68550;-26.480;29.234;2023-06-22T05:21:31;9;8;
79141;PMS5003;68550;-26.480;29.234;2023-06-22T05:23:57;14;11;
79141;PMS5003;68550;-26.480;29.234;2023-06-22T05:26:22;11;10;
79141;PMS5003;68550;-26.480;29.234;2023-06-22T05:28:48;12;11;
79141;PMS5003;68550;-26.480;29.234;2023-06-22T05:31:15;14;12;
79141;PMS5003;68550;-26.480;29.234;2023-06-22T05:33:39;21;17;
79141;PMS5003;68550;-26.480;29.234;2023-06-22T05:36:04;14;14;
79141;PMS5003;68550;-26.480;29.234;2023-06-22T05:38:29;17;13;
79141;PMS5003;68550;-26.480;29.234;2023-06-22T05:40:54;14;11;
79141;PMS5003;68550;-26.480;29.234;2023-06-22T05:43:20;17;15;
79141;PMS5003;68550;-26.480;29.234;2023-06-22T05:45:45;17;14;
79141;PMS5003;68550;-26.480;29.234;2023-06-22T05:48:10;12;12;
79141;PMS5003;68550;-26.480;29.234;2023-06-22T05:50:36;13;12;
79141;PMS5003;68550;-26.480;29.234;2023-06-22T05:53:01;15;15;
79141;PMS5003;68550;-26.480;29.234;2023-06-22T05:55:26;13;13;
79141;PMS5003;68550;-26.480;29.234;2023-06-22T05:57:54;17;16;
79141;PMS5003;68550;-26.480;29.234;2023-06-22T06:00:18;14;12;
79141;PMS5003;68550;-26.480;29.234;2023-06-22T06:02:43;18;16;
79141;PMS5003;68550;-26.480;29.234;2023-06-22T06:05:10;12;12;
79141;PMS5003;68550;-26.480;29.234;2023-06-22T06:07:34;14;13;
79141;PMS5003;68550;-26.480;29.234;2023-06-22T06:10:00;14;12;
79141;PMS5003;68550;-26.480;29.234;2023-06-22T06:12:25;18;15;
79141;PMS5003;68550;-26.480;29.234;2023-06-22T06:14:51;16;13;
79141;PMS5003;68550;-26.480;29.234;2023-06-22T06:17:16;12;11;
79141;PMS5003;68550;-26.480;29.234;2023-06-22T06:19:41;15;15;
79141;PMS5003;68550;-26.480;29.234;2023-06-22T06:22:09;13;13;
79141;PMS5003;68550;-26.480;29.234;2023-06-22T06:24:32;11;11;
79141;PMS5003;68550;-26.480;29.234;2023-06-22T06:26:57;16;14;
79141;PMS5003;68550;-26.480;29.234;2023-06-22T06:29:23;15;14;
79141;PMS5003;68550;-26.480;29.234;2023-06-22T06:31:49;12;12;
79141;PMS5003;68550;-26.480;29.234;2023-06-22T06:34:15;12;12;
79141;PMS5003;68550;-26.480;29.234;2023-06-22T06:36:40;19;18;
79141;PMS5003;68550;-26.480;29.234;2023-06-22T06:39:05;15;15;
79141;PMS5003;68550;-26.480;29.234;2023-06-22T06:41:36;18;15;
79141;PMS5003;68550;-26.480;29.234;2023-06-22T06:43:57;13;12;
79141;PMS5003;68550;-26.480;29.234;2023-06-22T06:46:22;13;11;
79141;PMS5003;68550;-26.480;29.234;2023-06-22T06:48:49;11;11;
79141;PMS5003;68550;-26.480;29.234;2023-06-22T06:51:13;20;17;
79141;PMS5003;68550;-26.480;29.234;2023-06-22T06:53:39;13;13;
79141;PMS5003;68550;-26.480;29.234;2023-06-22T06:56:05;13;12;
79141;PMS5003;68550;-26.480;29.234;2023-06-22T06:58:30;12;12;
79141;PMS5003;68550;-26.480;29.234;2023-06-22T07:00:57;12;12;
79141;PMS5003;68550;-26.480;29.234;2023-06-22T07:03:21;11;11;
79141;PMS5003;68550;-26.480;29.234;2023-06-22T07:05:47;13;12;
79141;PMS5003;68550;-26.480;29.234;2023-06-22T07:08:13;15;15;
79141;PMS5003;68550;-26.480;29.234;2023-06-22T07:10:39;14;12;
79141;PMS5003;68550;-26.480;29.234;2023-06-22T07:13:06;14;13;
79141;PMS5003;68550;-26.480;29.234;2023-06-22T07:15:30;11;11;
79141;PMS5003;68550;-26.480;29.234;2023-06-22T07:17:55;18;18;
79141;PMS5003;68550;-26.480;29.234;2023-06-22T07:20:20;14;13;
79141;PMS5003;68550;-26.480;29.234;2023-06-22T07:22:47;11;11;
79141;PMS5003;68550;-26.480;29.234;2023-06-22T07:25:13;13;13;
79141;PMS5003;68550;-26.480;29.234;2023-06-22T07:27:37;13;12;
79141;PMS5003;68550;-26.480;29.234;2023-06-22T07:30:02;13;12;
79141;PMS5003;68550;-26.480;29.234;2023-06-22T07:32:28;14;14;
79141;PMS5003;68550;-26.480;29.234;2023-06-22T07:34:54;14;13;
79141;PMS5003;68550;-26.480;29.234;2023-06-22T07:37:19;13;13;
79141;PMS5003;68550;-26.480;29.234;2023-06-22T07:39:45;14;13;
79141;PMS5003;68550;-26.480;29.234;2023-06-22T07:42:10;14;13;
79141;PMS5003;68550;-26.480;29.234;2023-06-22T07:44:35;18;18;
79141;PMS5003;68550;-26.480;29.234;2023-06-22T07:47:00;22;21;
79141;PMS5003;68550;-26.480;29.234;2023-06-22T07:49:33;13;13;
79141;PMS5003;68550;-26.480;29.234;2023-06-22T07:51:52;15;14;
79141;PMS5003;68550;-26.480;29.234;2023-06-22T07:54:17;14;14;
79141;PMS5003;68550;-26.480;29.234;2023-06-22T07:56:43;17;17;
79141;PMS5003;68550;-26.480;29.234;2023-06-22T07:59:09;13;12;
79141;PMS5003;68550;-26.480;29.234;2023-06-22T08:01:35;14;14;
79141;PMS5003;68550;-26.480;29.234;2023-06-22T08:04:00;14;14;
79141;PMS5003;68550;-26.480;29.234;2023-06-22T08:06:25;14;13;
79141;PMS5003;68550;-26.480;29.234;2023-06-22T08:08:51;12;12;
79141;PMS5003;68550;-26.480;29.234;2023-06-22T08:11:17;12;12;
79141;PMS5003;68550;-26.480;29.234;2023-06-22T08:13:42;14;14;
79141;PMS5003;68550;-26.480;29.234;2023-06-22T08:16:07;13;13;
79141;PMS5003;68550;-26.480;29.234;2023-06-22T08:18:33;15;14;
79141;PMS5003;68550;-26.480;29.234;2023-06-22T08:20:58;13;13;
79141;PMS5003;68550;-26.480;29.234;2023-06-22T08:23:24;15;14;
79141;PMS5003;68550;-26.480;29.234;2023-06-22T08:25:49;13;13;
79141;PMS5003;68550;-26.480;29.234;2023-06-22T08:28:17;16;15;
79141;PMS5003;68550;-26.480;29.234;2023-06-22T08:30:40;16;16;
79141;PMS5003;68550;-26.480;29.234;2023-06-22T08:33:06;15;15;
79141;PMS5003;68550;-26.480;29.234;2023-06-22T08:35:32;15;14;
79141;PMS5003;68550;-26.480;29.234;2023-06-22T08:37:57;14;14;
79141;PMS5003;68550;-26.480;29.234;2023-06-22T08:40:24;14;13;
79141;PMS5003;68550;-26.480;29.234;2023-06-22T08:42:49;13;13;
79141;PMS5003;68550;-26.480;29.234;2023-06-22T08:45:16;12;12;
79141;PMS5003;68550;-26.480;29.234;2023-06-22T08:47:42;14;13;
79141;PMS5003;68550;-26.480;29.234;2023-06-22T08:50:07;13;13;
79141;PMS5003;68550;-26.480;29.234;2023-06-22T08:52:31;13;12;
79141;PMS5003;68550;-26.480;29.234;2023-06-22T08:54:56;18;16;
79141;PMS5003;68550;-26.480;29.234;2023-06-22T08:57:22;12;12;
79141;PMS5003;68550;-26.480;29.234;2023-06-22T08:59:47;15;15;
79141;PMS5003;68550;-26.480;29.234;2023-06-22T09:02:13;15;14;
79141;PMS5003;68550;-26.480;29.234;2023-06-22T09:04:38;13;12;
79141;PMS5003;68550;-26.480;29.234;2023-06-22T09:07:05;15;14;
79141;PMS5003;68550;-26.480;29.234;2023-06-22T09:09:29;16;15;
79141;PMS5003;68550;-26.480;29.234;2023-06-22T09:11:57;14;14;
79141;PMS5003;68550;-26.480;29.234;2023-06-22T09:14:21;14;13;
79141;PMS5003;68550;-26.480;29.234;2023-06-22T09:16:46;14;14;
79141;PMS5003;68550;-26.480;29.234;2023-06-22T09:19:12;15;14;
79141;PMS5003;68550;-26.480;29.234;2023-06-22T09:21:37;11;11;
79141;PMS5003;68550;-26.480;29.234;2023-06-22T09:24:04;17;17;
79141;PMS5003;68550;-26.480;29.234;2023-06-22T09:26:32;12;11;
79141;PMS5003;68550;-26.480;29.234;2023-06-22T09:28:54;14;13;
79141;PMS5003;68550;-26.480;29.234;2023-06-22T09:31:19;13;12;
79141;PMS5003;68550;-26.480;29.234;2023-06-22T09:33:45;14;14;
79141;PMS5003;68550;-26.480;29.234;2023-06-22T09:36:12;16;15;
79141;PMS5003;68550;-26.480;29.234;2023-06-22T09:38:38;12;11;
79141;PMS5003;68550;-26.480;29.234;2023-06-22T09:41:01;14;12;
79141;PMS5003;68550;-26.480;29.234;2023-06-22T09:43:32;13;11;
79141;PMS5003;68550;-26.480;29.234;2023-06-22T09:45:52;15;14;
79141;PMS5003;68550;-26.480;29.234;2023-06-22T09:48:23;28;23;
79141;PMS5003;68550;-26.480;29.234;2023-06-22T09:50:44;21;19;
79141;PMS5003;68550;-26.480;29.234;2023-06-22T09:53:09;17;16;
79141;PMS5003;68550;-26.480;29.234;2023-06-22T09:55:34;16;15;
79141;PMS5003;68550;-26.480;29.234;2023-06-22T09:58:00;28;23;
79141;PMS5003;68550;-26.480;29.234;2023-06-22T10:00:26;23;20;
79141;PMS5003;68550;-26.480;29.234;2023-06-22T10:02:51;27;22;
79141;PMS5003;68550;-26.480;29.234;2023-06-22T10:05:16;20;19;
79141;PMS5003;68550;-26.480;29.234;2023-06-22T10:07:41;20;17;
79141;PMS5003;68550;-26.480;29.234;2023-06-22T10:10:12;32;24;
79141;PMS5003;68550;-26.480;29.234;2023-06-22T10:12:33;18;17;
79141;PMS5003;68550;-26.480;29.234;2023-06-22T10:14:58;20;19;
79141;PMS5003;68550;-26.480;29.234;2023-06-22T10:17:24;19;18;
79141;PMS5003;68550;-26.480;29.234;2023-06-22T10:19:49;20;18;
79141;PMS5003;68550;-26.480;29.234;2023-06-22T10:22:15;18;16;
79141;PMS5003;68550;-26.480;29.234;2023-06-22T10:24:41;21;18;
79141;PMS5003;68550;-26.480;29.234;2023-06-22T10:27:06;24;24;
79141;PMS5003;68550;-26.480;29.234;2023-06-22T10:29:35;23;22;
79141;PMS5003;68550;-26.480;29.234;2023-06-22T10:31:58;18;17;
79141;PMS5003;68550;-26.480;29.234;2023-06-22T10:34:23;25;21;
79141;PMS5003;68550;-26.480;29.234;2023-06-22T10:36:49;22;18;
79141;PMS5003;68550;-26.480;29.234;2023-06-22T10:39:14;24;21;
79141;PMS5003;68550;-26.480;29.234;2023-06-22T10:41:39;23;19;
79141;PMS5003;68550;-26.480;29.234;2023-06-22T10:44:04;22;21;
79141;PMS5003;68550;-26.480;29.234;2023-06-22T10:46:30;21;19;
79141;PMS5003;68550;-26.480;29.234;2023-06-22T10:48:55;22;22;
79141;PMS5003;68550;-26.480;29.234;2023-06-22T10:51:21;19;17;
79141;PMS5003;68550;-26.480;29.234;2023-06-22T10:53:47;25;22;
79141;PMS5003;68550;-26.480;29.234;2023-06-22T10:56:12;23;20;
79141;PMS5003;68550;-26.480;29.234;2023-06-22T10:58:44;21;20;
79141;PMS5003;68550;-26.480;29.234;2023-06-22T11:01:03;19;17;
79141;PMS5003;68550;-26.480;29.234;2023-06-22T11:03:30;19;18;
79141;PMS5003;68550;-26.480;29.234;2023-06-22T11:05:56;23;21;
79141;PMS5003;68550;-26.480;29.234;2023-06-22T11:08:24;22;19;
79141;PMS5003;68550;-26.480;29.234;2023-06-22T11:10:45;17;16;
79141;PMS5003;68550;-26.480;29.234;2023-06-22T11:13:11;24;22;
79141;PMS5003;68550;-26.480;29.234;2023-06-22T11:15:36;24;18;
79141;PMS5003;68550;-26.480;29.234;2023-06-22T11:18:02;17;16;
79141;PMS5003;68550;-26.480;29.234;2023-06-22T11:20:27;24;17;
79141;PMS5003;68550;-26.480;29.234;2023-06-22T11:22:52;22;18;
79141;PMS5003;68550;-26.480;29.234;2023-06-22T11:25:18;20;19;
79141;PMS5003;68550;-26.480;29.234;2023-06-22T11:27:45;14;13;
79141;PMS5003;68550;-26.480;29.234;2023-06-22T11:30:09;21;20;
79141;PMS5003;68550;-26.480;29.234;2023-06-22T11:32:34;22;20;
79141;PMS5003;68550;-26.480;29.234;2023-06-22T11:35:01;17;15;
79141;PMS5003;68550;-26.480;29.234;2023-06-22T11:37:24;18;17;
79141;PMS5003;68550;-26.480;29.234;2023-06-22T11:39:50;22;20;
79141;PMS5003;68550;-26.480;29.234;2023-06-22T11:42:18;19;17;
79141;PMS5003;68550;-26.480;29.234;2023-06-22T11:44:41;14;14;
79141;PMS5003;68550;-26.480;29.234;2023-06-22T11:47:06;22;19;
79141;PMS5003;68550;-26.480;29.234;2023-06-22T11:49:32;23;16;
79141;PMS5003;68550;-26.480;29.234;2023-06-22T11:51:57;23;19;
79141;PMS5003;68550;-26.480;29.234;2023-06-22T11:54:23;23;17;
79141;PMS5003;68550;-26.480;29.234;2023-06-22T11:56:48;20;16;
79141;PMS5003;68550;-26.480;29.234;2023-06-22T12:01:41;29;26;
79141;PMS5003;68550;-26.480;29.234;2023-06-22T12:04:05;28;26;
79141;PMS5003;68550;-26.480;29.234;2023-06-22T12:06:30;27;24;
79141;PMS5003;68550;-26.480;29.234;2023-06-22T12:08:56;28;28;
79141;PMS5003;68550;-26.480;29.234;2023-06-22T12:11:21;29;26;
79141;PMS5003;68550;-26.480;29.234;2023-06-22T12:13:47;28;25;
79141;PMS5003;68550;-26.480;29.234;2023-06-22T12:16:12;31;28;
79141;PMS5003;68550;-26.480;29.234;2023-06-22T12:18:38;30;29;
79141;PMS5003;68550;-26.480;29.234;2023-06-22T12:21:04;30;28;
79141;PMS5003;68550;-26.480;29.234;2023-06-22T12:23:29;28;27;
79141;PMS5003;68550;-26.480;29.234;2023-06-22T12:25:55;27;25;
79141;PMS5003;68550;-26.480;29.234;2023-06-22T12:28:21;25;24;
79141;PMS5003;68550;-26.480;29.234;2023-06-22T12:30:47;27;26;
79141;PMS5003;68550;-26.480;29.234;2023-06-22T12:33:12;25;24;
79141;PMS5003;68550;-26.480;29.234;2023-06-22T12:35:36;39;32;
79141;PMS5003;68550;-26.480;29.234;2023-06-22T12:38:02;27;24;
79141;PMS5003;68550;-26.480;29.234;2023-06-22T12:40:27;30;28;
79141;PMS5003;68550;-26.480;29.234;2023-06-22T12:42:54;26;22;
79141;PMS5003;68550;-26.480;29.234;2023-06-22T12:45:18;26;23;
79141;PMS5003;68550;-26.480;29.234;2023-06-22T12:47:43;22;20;
79141;PMS5003;68550;-26.480;29.234;2023-06-22T12:50:09;25;21;
79141;PMS5003;68550;-26.480;29.234;2023-06-22T12:52:36;27;22;
79141;PMS5003;68550;-26.480;29.234;2023-06-22T12:55:02;27;24;
79141;PMS5003;68550;-26.480;29.234;2023-06-22T12:57:26;23;21;
79141;PMS5003;68550;-26.480;29.234;2023-06-22T12:59:51;19;16;
79141;PMS5003;68550;-26.480;29.234;2023-06-22T13:02:17;27;22;
79141;PMS5003;68550;-26.480;29.234;2023-06-22T13:04:42;25;25;
79141;PMS5003;68550;-26.480;29.234;2023-06-22T13:07:08;19;17;
79141;PMS5003;68550;-26.480;29.234;2023-06-22T13:09:35;18;18;
79141;PMS5003;68550;-26.480;29.234;2023-06-22T13:11:59;16;14;
79141;PMS5003;68550;-26.480;29.234;2023-06-22T13:14:24;23;21;
79141;PMS5003;68550;-26.480;29.234;2023-06-22T13:16:50;19;15;
79141;PMS5003;68550;-26.480;29.234;2023-06-22T13:19:16;16;15;
79141;PMS5003;68550;-26.480;29.234;2023-06-22T13:21:42;17;15;
79141;PMS5003;68550;-26.480;29.234;2023-06-22T13:24:07;20;19;
79141;PMS5003;68550;-26.480;29.234;2023-06-22T13:26:32;16;14;
79141;PMS5003;68550;-26.480;29.234;2023-06-22T13:29:00;16;16;
79141;PMS5003;68550;-26.480;29.234;2023-06-22T13:31:25;16;16;
79141;PMS5003;68550;-26.480;29.234;2023-06-22T13:33:49;14;13;
79141;PMS5003;68550;-26.480;29.234;2023-06-22T13:36:14;15;15;
79141;PMS5003;68550;-26.480;29.234;2023-06-22T13:38:40;13;12;
79141;PMS5003;68550;-26.480;29.234;2023-06-22T13:41:05;13;12;
79141;PMS5003;68550;-26.480;29.234;2023-06-22T13:43:30;14;14;
79141;PMS5003;68550;-26.480;29.234;2023-06-22T13:45:56;13;13;
79141;PMS5003;68550;-26.480;29.234;2023-06-22T13:48:23;15;14;
79141;PMS5003;68550;-26.480;29.234;2023-06-22T13:50:47;13;13;
79141;PMS5003;68550;-26.480;29.234;2023-06-22T13:53:12;17;15;
79141;PMS5003;68550;-26.480;29.234;2023-06-22T13:55:38;15;14;
79141;PMS5003;68550;-26.480;29.234;2023-06-22T13:58:04;15;13;
79141;PMS5003;68550;-26.480;29.234;2023-06-22T14:00:30;18;15;
79141;PMS5003;68550;-26.480;29.234;2023-06-22T14:02:55;12;11;
79141;PMS5003;68550;-26.480;29.234;2023-06-22T14:05:20;13;12;
79141;PMS5003;68550;-26.480;29.234;2023-06-22T14:07:45;12;12;
79141;PMS5003;68550;-26.480;29.234;2023-06-22T14:10:11;12;11;
79141;PMS5003;68550;-26.480;29.234;2023-06-22T14:12:38;13;12;
79141;PMS5003;68550;-26.480;29.234;2023-06-22T14:15:02;13;13;
79141;PMS5003;68550;-26.480;29.234;2023-06-22T14:17:27;15;15;
79141;PMS5003;68550;-26.480;29.234;2023-06-22T14:19:53;12;12;
79141;PMS5003;68550;-26.480;29.234;2023-06-22T14:22:18;13;13;
79141;PMS5003;68550;-26.480;29.234;2023-06-22T14:24:45;13;13;
79141;PMS5003;68550;-26.480;29.234;2023-06-22T14:27:10;11;11;
79141;PMS5003;68550;-26.480;29.234;2023-06-22T14:29:35;11;11;
79141;PMS5003;68550;-26.480;29.234;2023-06-22T14:32:00;11;10;
79141;PMS5003;68550;-26.480;29.234;2023-06-22T14:34:26;14;13;
79141;PMS5003;68550;-26.480;29.234;2023-06-22T14:36:52;12;11;
79141;PMS5003;68550;-26.480;29.234;2023-06-22T14:39:17;12;12;
79141;PMS5003;68550;-26.480;29.234;2023-06-22T14:41:42;11;11;
79141;PMS5003;68550;-26.480;29.234;2023-06-22T14:44:09;15;14;
79141;PMS5003;68550;-26.480;29.234;2023-06-22T14:46:35;17;16;
79141;PMS5003;68550;-26.480;29.234;2023-06-22T14:48:58;11;10;
79141;PMS5003;68550;-26.480;29.234;2023-06-22T14:51:24;11;11;
79141;PMS5003;68550;-26.480;29.234;2023-06-22T14:53:50;10;10;
79141;PMS5003;68550;-26.480;29.234;2023-06-22T14:56:20;13;13;
79141;PMS5003;68550;-26.480;29.234;2023-06-22T14:58:41;14;13;
79141;PMS5003;68550;-26.480;29.234;2023-06-22T15:04:25;11;11;
79141;PMS5003;68550;-26.480;29.234;2023-06-22T15:06:49;14;14;
79141;PMS5003;68550;-26.480;29.234;2023-06-22T15:09:20;12;11;
79141;PMS5003;68550;-26.480;29.234;2023-06-22T15:11:40;14;14;
79141;PMS5003;68550;-26.480;29.234;2023-06-22T15:14:05;14;14;
79141;PMS5003;68550;-26.480;29.234;2023-06-22T15:16:31;12;12;
79141;PMS5003;68550;-26.480;29.234;2023-06-22T15:18:57;14;13;
79141;PMS5003;68550;-26.480;29.234;2023-06-22T15:21:22;15;13;
79141;PMS5003;68550;-26.480;29.234;2023-06-22T15:23:48;13;13;
79141;PMS5003;68550;-26.480;29.234;2023-06-22T15:26:13;12;11;
79141;PMS5003;68550;-26.480;29.234;2023-06-22T15:28:44;14;14;
79141;PMS5003;68550;-26.480;29.234;2023-06-22T15:31:06;14;13;
79141;PMS5003;68550;-26.480;29.234;2023-06-22T15:33:29;14;12;
79141;PMS5003;68550;-26.480;29.234;2023-06-22T15:35:54;14;13;
79141;PMS5003;68550;-26.480;29.234;2023-06-22T15:38:20;16;15;
79141;PMS5003;68550;-26.480;29.234;2023-06-22T15:40:45;20;18;
79141;PMS5003;68550;-26.480;29.234;2023-06-22T15:43:11;14;13;
79141;PMS5003;68550;-26.480;29.234;2023-06-22T15:45:36;17;16;
79141;PMS5003;68550;-26.480;29.234;2023-06-22T15:48:02;16;15;
79141;PMS5003;68550;-26.480;29.234;2023-06-22T15:50:27;15;15;